createdAt,value
2023-05-18T00:01:16.875Z,100400.97
2023-05-18T00:03:43.675Z,100394.44
2023-05-18T00:06:10.812Z,100396.13
2023-05-18T00:08:38.497Z,100401.38
2023-05-18T00:11:07.405Z,100400.38
2023-05-18T00:13:34.180Z,100402.81
2023-05-18T00:16:01.248Z,100397.41
2023-05-18T00:18:28.324Z,100405.31
2023-05-18T00:21:02.124Z,100407.59
2023-05-18T00:23:33.132Z,100407.06
2023-05-18T00:26:01.591Z,100404.66
2023-05-18T00:28:29.169Z,100407.50
2023-05-18T00:30:56.476Z,100405.53
2023-05-18T00:33:23.458Z,100406.94
2023-05-18T00:35:50.202Z,100408.09
2023-05-18T00:38:16.899Z,100404.53
2023-05-18T00:40:44.139Z,100402.00
2023-05-18T00:43:10.750Z,100402.13
2023-05-18T00:45:37.487Z,100398.44
2023-05-18T00:48:04.759Z,100407.94
2023-05-18T00:50:31.960Z,100403.69
2023-05-18T00:52:59.208Z,100401.00
2023-05-18T00:55:28.005Z,100408.63
2023-05-18T00:57:56.595Z,100411.19
2023-05-18T01:00:23.918Z,100417.00
2023-05-18T01:02:51.437Z,100412.88
2023-05-18T01:05:20.033Z,100415.69
2023-05-18T01:07:47.987Z,100409.34
2023-05-18T01:10:17.399Z,100423.38
2023-05-18T01:12:56.628Z,100422.25
2023-05-18T01:15:36.553Z,100427.34
2023-05-18T01:18:21.928Z,100428.59
2023-05-18T01:21:11.161Z,100427.22
2023-05-18T01:24:09.643Z,100429.19
2023-05-18T01:26:41.341Z,100431.63
2023-05-18T01:29:10.250Z,100434.16
2023-05-18T01:31:37.163Z,100427.63
2023-05-18T01:34:03.798Z,100431.19
2023-05-18T01:36:31.642Z,100438.28
2023-05-18T01:39:02.006Z,100432.31
2023-05-18T01:41:29.773Z,100433.03
2023-05-18T01:44:18.279Z,100439.41
2023-05-18T01:47:02.303Z,100446.09
2023-05-18T01:49:38.039Z,100440.72
2023-05-18T01:52:10.244Z,100448.81
2023-05-18T01:54:41.734Z,100447.66
2023-05-18T01:57:09.419Z,100450.78
2023-05-18T01:59:37.905Z,100449.06
2023-05-18T02:02:05.660Z,100465.28
2023-05-18T02:04:32.390Z,100455.75
2023-05-18T02:06:59.010Z,100460.88
2023-05-18T02:09:25.702Z,100456.31
2023-05-18T02:11:52.375Z,100459.88
2023-05-18T02:14:19.032Z,100458.06
2023-05-18T02:16:47.287Z,100463.59
2023-05-18T02:19:18.508Z,100468.28
2023-05-18T02:21:45.407Z,100477.22
2023-05-18T02:24:12.746Z,100471.25
2023-05-18T02:26:39.887Z,100475.78
2023-05-18T02:29:06.936Z,100482.19
2023-05-18T02:31:33.752Z,100483.31
2023-05-18T02:34:00.466Z,100478.09
2023-05-18T02:36:27.207Z,100477.50
2023-05-18T02:38:53.909Z,100480.91
2023-05-18T02:41:21.126Z,100484.88
2023-05-18T02:43:47.744Z,100481.06
2023-05-18T02:46:14.428Z,100484.59
2023-05-18T02:48:45.824Z,100479.06
2023-05-18T02:51:12.715Z,100481.50
2023-05-18T02:53:39.610Z,100492.53
2023-05-18T02:56:06.541Z,100487.28
2023-05-18T02:58:33.406Z,100484.59
2023-05-18T03:01:00.510Z,100477.78
2023-05-18T03:03:27.207Z,100476.78
2023-05-18T03:05:53.904Z,100480.31
2023-05-18T03:08:22.745Z,100483.88
2023-05-18T03:10:50.501Z,100484.88
2023-05-18T03:13:17.155Z,100485.59
2023-05-18T03:15:45.774Z,100487.59
2023-05-18T03:18:12.789Z,100497.81
2023-05-18T03:20:39.547Z,100490.53
2023-05-18T03:23:06.472Z,100492.84
2023-05-18T03:25:33.125Z,100490.72
2023-05-18T03:27:59.753Z,100489.97
2023-05-18T03:30:27.564Z,100490.16
2023-05-18T03:32:54.255Z,100496.25
2023-05-18T03:35:21.003Z,100496.09
2023-05-18T03:37:47.625Z,100502.19
2023-05-18T03:40:16.343Z,100509.84
2023-05-18T03:42:43.358Z,100519.94
2023-05-18T03:45:10.907Z,100514.94
2023-05-18T03:47:38.698Z,100520.31
2023-05-18T03:50:06.712Z,100521.19
2023-05-18T03:52:34.491Z,100527.00
2023-05-18T03:55:04.796Z,100520.63
2023-05-18T03:57:32.648Z,100519.31
2023-05-18T03:59:59.320Z,100521.19
2023-05-18T04:02:26.389Z,100519.06
2023-05-18T04:04:54.162Z,100521.31
2023-05-18T04:07:24.303Z,100519.47
2023-05-18T04:09:56.325Z,100522.75
2023-05-18T04:12:23.559Z,100526.88
2023-05-18T04:14:50.186Z,100531.09
2023-05-18T04:17:18.269Z,100538.63
2023-05-18T04:19:44.897Z,100537.22
2023-05-18T04:22:11.711Z,100539.91
2023-05-18T04:24:38.454Z,100541.63
2023-05-18T04:27:05.108Z,100543.31
2023-05-18T04:29:31.735Z,100544.31
2023-05-18T04:32:01.232Z,100541.50
2023-05-18T04:34:29.623Z,100551.41
2023-05-18T04:36:58.757Z,100549.41
2023-05-18T04:39:25.818Z,100548.44
2023-05-18T04:41:58.596Z,100549.16
2023-05-18T04:44:27.538Z,100546.03
2023-05-18T04:46:57.304Z,100550.41
2023-05-18T04:49:24.052Z,100557.69
2023-05-18T04:51:55.738Z,100544.19
2023-05-18T04:54:32.533Z,100544.63
2023-05-18T04:56:59.608Z,100547.91
2023-05-18T04:59:26.566Z,100554.00
2023-05-18T05:01:53.793Z,100550.16
2023-05-18T05:04:22.140Z,100551.03
2023-05-18T05:06:48.820Z,100556.69
2023-05-18T05:09:15.780Z,100563.91
2023-05-18T05:11:42.597Z,100560.38
2023-05-18T05:14:09.241Z,100564.22
2023-05-18T05:16:36.292Z,100558.50
2023-05-18T05:19:03.133Z,100559.38
2023-05-18T05:21:29.843Z,100562.94
2023-05-18T05:23:56.429Z,100567.34
2023-05-18T05:26:23.168Z,100573.56
2023-05-18T05:28:49.966Z,100562.94
2023-05-18T05:31:16.685Z,100572.44
2023-05-18T05:33:43.596Z,100565.91
2023-05-18T05:36:10.218Z,100571.31
2023-05-18T05:38:37.455Z,100580.69
2023-05-18T05:41:04.102Z,100580.41
2023-05-18T05:43:31.030Z,100581.97
2023-05-18T05:45:57.700Z,100587.94
2023-05-18T05:48:24.334Z,100581.41
2023-05-18T05:50:50.982Z,100587.50
2023-05-18T05:53:19.682Z,100591.34
2023-05-18T05:55:46.590Z,100601.16
2023-05-18T05:58:13.254Z,100590.75
2023-05-18T06:00:39.985Z,100592.31
2023-05-18T06:03:06.764Z,100597.88
2023-05-18T06:05:33.606Z,100596.88
2023-05-18T06:08:00.822Z,100596.88
2023-05-18T06:10:27.726Z,100603.09
2023-05-18T06:12:54.348Z,100606.66
2023-05-18T06:15:21.129Z,100602.72
2023-05-18T06:17:47.847Z,100607.94
2023-05-18T06:20:14.562Z,100608.53
2023-05-18T06:22:41.286Z,100619.34
2023-05-18T06:25:08.522Z,100617.34
2023-05-18T06:27:35.148Z,100618.34
2023-05-18T06:30:01.863Z,100612.38
2023-05-18T06:32:28.708Z,100620.31
2023-05-18T06:34:56.566Z,100618.03
2023-05-18T06:37:23.311Z,100625.56
2023-05-18T06:39:49.922Z,100620.19
2023-05-18T06:42:16.619Z,100621.59
2023-05-18T06:44:43.577Z,100625.88
2023-05-18T06:47:10.261Z,100628.91
2023-05-18T06:49:36.920Z,100629.47
2023-05-18T06:52:04.213Z,100633.44
2023-05-18T06:54:30.915Z,100638.56
2023-05-18T06:56:57.731Z,100645.78
2023-05-18T06:59:24.482Z,100646.94
2023-05-18T07:01:51.421Z,100648.75
2023-05-18T07:04:19.451Z,100643.63
2023-05-18T07:06:46.727Z,100648.03
2023-05-18T07:09:13.402Z,100653.56
2023-05-18T07:11:40.507Z,100654.28
2023-05-18T07:14:07.225Z,100656.03
2023-05-18T07:16:34.214Z,100657.00
2023-05-18T07:19:01.016Z,100661.00
2023-05-18T07:21:27.648Z,100657.28
2023-05-18T07:23:54.285Z,100663.56
2023-05-18T07:26:22.522Z,100660.84
2023-05-18T07:28:51.377Z,100668.09
2023-05-18T07:31:21.184Z,100665.69
2023-05-18T07:33:48.306Z,100663.25
2023-05-18T07:36:15.469Z,100668.09
2023-05-18T07:38:42.358Z,100665.25
2023-05-18T07:41:09.035Z,100673.91
2023-05-18T07:43:36.223Z,100674.78
2023-05-18T07:46:02.862Z,100671.66
2023-05-18T07:48:29.515Z,100667.25
2023-05-18T07:50:56.152Z,100673.50
2023-05-18T07:53:22.768Z,100674.06
2023-05-18T07:55:50.117Z,100674.50
2023-05-18T07:58:16.842Z,100683.44
2023-05-18T08:00:44.932Z,100670.50
2023-05-18T08:03:12.036Z,100683.47
2023-05-18T08:05:38.780Z,100675.63
2023-05-18T08:08:06.958Z,100674.91
2023-05-18T08:10:34.065Z,100672.75
2023-05-18T08:13:00.790Z,100676.75
2023-05-18T08:15:27.485Z,100674.31
2023-05-18T08:17:55.204Z,100680.16
2023-05-18T08:20:22.028Z,100684.25
2023-05-18T08:22:48.780Z,100689.84
2023-05-18T08:25:15.374Z,100684.69
2023-05-18T08:27:42.074Z,100689.38
2023-05-18T08:30:09.318Z,100687.66
2023-05-18T08:32:37.422Z,100688.34
2023-05-18T08:35:05.980Z,100687.63
2023-05-18T08:37:32.742Z,100690.41
2023-05-18T08:40:02.506Z,100681.91
2023-05-18T08:42:48.564Z,100690.16
2023-05-18T08:45:32.866Z,100691.66
2023-05-18T08:48:01.578Z,100689.66
2023-05-18T08:50:31.924Z,100692.47
2023-05-18T08:53:04.950Z,100696.88
2023-05-18T08:55:37.303Z,100694.97
2023-05-18T08:58:07.910Z,100699.97
2023-05-18T09:00:35.440Z,100696.34
2023-05-18T09:03:05.117Z,100684.69
2023-05-18T09:05:32.361Z,100689.16
2023-05-18T09:07:59.656Z,100684.09
2023-05-18T09:10:27.102Z,100685.88
2023-05-18T09:12:57.186Z,100684.94
2023-05-18T09:15:25.542Z,100689.84
2023-05-18T09:17:52.552Z,100690.78
2023-05-18T09:20:20.817Z,100693.53
2023-05-18T09:22:51.347Z,100687.63
2023-05-18T09:25:19.007Z,100697.78
2023-05-18T09:27:47.922Z,100697.88
2023-05-18T09:30:14.715Z,100695.09
2023-05-18T09:32:42.271Z,100700.50
2023-05-18T09:35:09.487Z,100697.94
2023-05-18T09:37:36.431Z,100703.06
2023-05-18T09:40:06.828Z,100702.81
2023-05-18T09:42:40.889Z,100698.50
2023-05-18T09:45:19.661Z,100707.25
2023-05-18T09:47:46.979Z,100706.34
2023-05-18T09:50:13.733Z,100703.53
2023-05-18T09:52:44.623Z,100707.41
2023-05-18T09:55:12.182Z,100702.66
2023-05-18T09:57:41.278Z,100700.28
2023-05-18T10:00:11.121Z,100701.50
2023-05-18T10:02:39.529Z,100700.03
2023-05-18T10:05:07.791Z,100700.72
2023-05-18T10:07:36.892Z,100695.97
2023-05-18T10:10:04.047Z,100695.31
2023-05-18T10:12:30.827Z,100702.75
2023-05-18T10:14:57.623Z,100700.84
2023-05-18T10:17:26.686Z,100702.38
2023-05-18T10:19:57.022Z,100701.84
2023-05-18T10:22:26.002Z,100699.47
2023-05-18T10:24:53.055Z,100705.38
2023-05-18T10:27:26.787Z,100707.78
2023-05-18T10:29:55.393Z,100700.84
2023-05-18T10:32:23.228Z,100703.91
2023-05-18T10:34:54.201Z,100706.06
2023-05-18T10:37:22.949Z,100706.97
2023-05-18T10:39:54.263Z,100703.25
2023-05-18T10:42:22.246Z,100711.06
2023-05-18T10:44:52.693Z,100711.84
2023-05-18T10:47:20.390Z,100711.81
2023-05-18T10:49:49.173Z,100713.22
2023-05-18T10:52:18.928Z,100705.63
2023-05-18T10:54:46.788Z,100708.56
2023-05-18T10:57:16.281Z,100705.84
2023-05-18T10:59:46.069Z,100708.88
2023-05-18T11:02:17.689Z,100708.34
2023-05-18T11:04:47.496Z,100706.16
2023-05-18T11:07:17.399Z,100710.38
2023-05-18T11:09:44.740Z,100704.63
2023-05-18T11:12:17.771Z,100703.16
2023-05-18T11:14:53.025Z,100712.19
2023-05-18T11:17:25.551Z,100709.97
2023-05-18T11:20:12.742Z,100719.28
2023-05-18T11:22:57.526Z,100719.91
2023-05-18T11:25:24.090Z,100714.50
2023-05-18T11:27:52.354Z,100718.25
2023-05-18T11:30:32.773Z,100719.09
2023-05-18T11:33:26.978Z,100716.50
2023-05-18T11:36:13.560Z,100727.34
2023-05-18T11:38:48.569Z,100733.56
2023-05-18T11:41:44.653Z,100731.03
2023-05-18T11:44:20.502Z,100723.53
2023-05-18T11:47:01.787Z,100727.22
2023-05-18T11:49:36.430Z,100735.16
2023-05-18T11:52:08.952Z,100734.16
2023-05-18T11:54:41.623Z,100726.81
2023-05-18T11:57:10.993Z,100725.78
2023-05-18T11:59:40.981Z,100735.41
2023-05-18T12:02:11.599Z,100734.03
2023-05-18T12:04:56.512Z,100730.00
2023-05-18T12:07:28.329Z,100736.06
2023-05-18T12:10:08.354Z,100737.75
2023-05-18T12:12:35.320Z,100735.56
2023-05-18T12:15:05.379Z,100734.44
2023-05-18T12:17:41.895Z,100744.50
2023-05-18T12:20:11.902Z,100736.75
2023-05-18T12:22:39.882Z,100737.28
2023-05-18T12:25:07.256Z,100741.69
2023-05-18T12:27:43.953Z,100736.44
2023-05-18T12:30:20.917Z,100740.16
2023-05-18T12:32:50.940Z,100734.66
2023-05-18T12:35:21.690Z,100738.03
2023-05-18T12:37:48.307Z,100734.69
2023-05-18T12:40:16.832Z,100729.09
2023-05-18T12:42:53.649Z,100735.22
2023-05-18T12:45:23.902Z,100733.66
2023-05-18T12:47:55.286Z,100731.16
2023-05-18T12:50:23.421Z,100734.94
2023-05-18T12:52:50.613Z,100731.03
2023-05-18T12:55:25.411Z,100734.56
2023-05-18T12:58:03.873Z,100734.72
2023-05-18T13:00:35.201Z,100737.91
2023-05-18T13:03:13.502Z,100735.44
2023-05-18T13:05:44.191Z,100729.50
2023-05-18T13:08:16.466Z,100735.47
2023-05-18T13:10:44.257Z,100729.34
2023-05-18T13:13:11.105Z,100731.56
2023-05-18T13:15:39.190Z,100736.16
2023-05-18T13:18:09.908Z,100737.34
2023-05-18T13:20:41.137Z,100730.56
2023-05-18T13:23:10.519Z,100734.00
2023-05-18T13:25:37.415Z,100737.09
2023-05-18T13:28:05.848Z,100737.38
2023-05-18T13:30:33.372Z,100727.56
2023-05-18T13:33:00.358Z,100736.72
2023-05-18T13:35:26.992Z,100735.31
2023-05-18T13:37:54.221Z,100750.25
2023-05-18T13:40:22.209Z,100735.16
2023-05-18T13:42:48.894Z,100742.78
2023-05-18T13:45:16.381Z,100736.47
2023-05-18T13:47:45.703Z,100741.59
2023-05-18T13:50:12.503Z,100737.06
2023-05-18T13:52:39.176Z,100739.63
2023-05-18T13:55:08.450Z,100741.84
2023-05-18T13:57:36.381Z,100741.69
2023-05-18T14:00:06.970Z,100742.00
2023-05-18T14:02:33.766Z,100739.94
2023-05-18T14:05:00.550Z,100744.34
2023-05-18T14:07:27.256Z,100747.47
2023-05-18T14:09:53.865Z,100752.25
2023-05-18T14:12:20.447Z,100750.06
2023-05-18T14:14:47.097Z,100749.19
2023-05-18T14:17:13.959Z,100744.25
2023-05-18T14:19:40.822Z,100747.97
2023-05-18T14:22:07.454Z,100753.38
2023-05-18T14:24:34.107Z,100754.94
2023-05-18T14:27:00.741Z,100754.72
2023-05-18T14:29:27.435Z,100757.78
2023-05-18T14:31:54.043Z,100747.31
2023-05-18T14:34:20.669Z,100743.56
2023-05-18T14:36:47.235Z,100751.56
2023-05-18T14:39:13.869Z,100752.38
2023-05-18T14:41:40.493Z,100754.47
2023-05-18T14:44:09.913Z,100752.13
2023-05-18T14:46:37.128Z,100751.81
2023-05-18T14:49:03.808Z,100753.72
2023-05-18T14:51:30.489Z,100758.69
2023-05-18T14:53:57.295Z,100756.28
2023-05-18T14:56:23.982Z,100759.31
2023-05-18T14:58:50.810Z,100763.19
2023-05-18T15:01:17.548Z,100764.31
2023-05-18T15:03:44.615Z,100770.84
2023-05-18T15:06:11.366Z,100767.44
2023-05-18T15:08:38.024Z,100774.28
2023-05-18T15:11:05.107Z,100767.63
2023-05-18T15:13:32.048Z,100770.34
2023-05-18T15:15:58.876Z,100772.66
2023-05-18T15:18:25.953Z,100775.31
2023-05-18T15:20:52.623Z,100770.66
2023-05-18T15:23:19.224Z,100776.41
2023-05-18T15:25:46.272Z,100770.66
2023-05-18T15:28:13.792Z,100773.91
2023-05-18T15:30:40.580Z,100767.31
2023-05-18T15:33:07.776Z,100769.88
2023-05-18T15:35:36.291Z,100771.97
2023-05-18T15:38:03.076Z,100763.84
2023-05-18T15:40:30.024Z,100775.94
2023-05-18T15:42:56.782Z,100770.88
2023-05-18T15:45:23.453Z,100774.06
2023-05-18T15:47:50.142Z,100774.16
2023-05-18T15:50:16.857Z,100773.63
2023-05-18T15:52:44.310Z,100769.88
2023-05-18T15:55:10.973Z,100771.97
2023-05-18T15:57:37.767Z,100781.50
2023-05-18T16:00:04.837Z,100775.59
2023-05-18T16:02:31.487Z,100773.28
2023-05-18T16:04:58.184Z,100777.31
2023-05-18T16:07:24.778Z,100780.66
2023-05-18T16:09:51.571Z,100783.97
2023-05-18T16:12:18.146Z,100779.56
2023-05-18T16:14:44.905Z,100779.56
2023-05-18T16:17:11.658Z,100783.34
2023-05-18T16:19:38.339Z,100789.25
2023-05-18T16:22:05.005Z,100792.34
2023-05-18T16:24:31.588Z,100788.91
2023-05-18T16:26:58.197Z,100792.97
2023-05-18T16:29:24.883Z,100783.59
2023-05-18T16:31:52.098Z,100791.19
2023-05-18T16:34:18.940Z,100793.75
2023-05-18T16:36:45.637Z,100792.72
2023-05-18T16:39:12.254Z,100793.75
2023-05-18T16:41:39.003Z,100796.31
2023-05-18T16:44:05.832Z,100791.03
2023-05-18T16:46:32.567Z,100791.34
2023-05-18T16:48:59.272Z,100789.38
2023-05-18T16:51:27.467Z,100791.72
2023-05-18T16:53:54.345Z,100798.03
2023-05-18T16:56:22.250Z,100805.34
2023-05-18T16:58:53.486Z,100798.91
2023-05-18T17:01:28.066Z,100796.34
2023-05-18T17:03:55.681Z,100790.91
2023-05-18T17:06:22.624Z,100792.97
2023-05-18T17:08:53.083Z,100792.44
2023-05-18T17:11:19.740Z,100795.00
2023-05-18T17:13:46.371Z,100793.59
2023-05-18T17:16:14.266Z,100796.91
2023-05-18T17:18:41.352Z,100800.94
2023-05-18T17:21:08.110Z,100802.09
2023-05-18T17:23:34.759Z,100801.56
2023-05-18T17:26:06.615Z,100807.41
2023-05-18T17:28:33.585Z,100806.84
2023-05-18T17:31:00.316Z,100812.19
2023-05-18T17:33:26.948Z,100815.91
2023-05-18T17:35:53.772Z,100803.34
2023-05-18T17:38:22.577Z,100805.75
2023-05-18T17:40:49.516Z,100818.03
2023-05-18T17:43:16.118Z,100816.72
2023-05-18T17:45:42.875Z,100817.47
2023-05-18T17:48:09.514Z,100810.91
2023-05-18T17:50:37.815Z,100808.19
2023-05-18T17:53:05.018Z,100802.22
2023-05-18T17:55:32.076Z,100796.97
2023-05-18T17:58:01.045Z,100791.00
2023-05-18T18:00:28.050Z,100793.63
2023-05-18T18:02:55.410Z,100796.31
2023-05-18T18:05:22.240Z,100806.59
2023-05-18T18:07:48.926Z,100804.03
2023-05-18T18:10:15.588Z,100805.63
2023-05-18T18:12:42.774Z,100816.59
2023-05-18T18:15:10.132Z,100817.13
2023-05-18T18:17:36.821Z,100816.13
2023-05-18T18:20:05.669Z,100816.13
2023-05-18T18:22:34.250Z,100826.53
2023-05-18T18:25:02.308Z,100833.53
2023-05-18T18:27:28.987Z,100834.72
2023-05-18T18:29:56.374Z,100842.25
2023-05-18T18:32:23.058Z,100852.94
2023-05-18T18:34:49.708Z,100852.09
2023-05-18T18:37:17.076Z,100858.91
2023-05-18T18:39:43.731Z,100853.94
2023-05-18T18:42:10.416Z,100853.22
2023-05-18T18:44:37.142Z,100849.38
2023-05-18T18:47:04.094Z,100844.81
2023-05-18T18:49:30.805Z,100853.78
2023-05-18T18:51:58.908Z,100850.97
2023-05-18T18:54:26.372Z,100851.94
2023-05-18T18:56:53.069Z,100851.78
2023-05-18T18:59:19.717Z,100857.94
2023-05-18T19:01:46.803Z,100861.47
2023-05-18T19:04:13.748Z,100862.91
2023-05-18T19:06:40.401Z,100867.44
2023-05-18T19:09:07.019Z,100860.34
2023-05-18T19:11:33.767Z,100857.63
2023-05-18T19:14:00.636Z,100862.47
2023-05-18T19:16:27.377Z,100869.44
2023-05-18T19:18:54.217Z,100877.56
2023-05-18T19:21:21.762Z,100877.56
2023-05-18T19:23:48.387Z,100878.41
2023-05-18T19:26:15.102Z,100882.09
2023-05-18T19:28:42.231Z,100887.38
2023-05-18T19:31:10.740Z,100890.78
2023-05-18T19:33:38.972Z,100889.06
2023-05-18T19:36:05.670Z,100892.22
2023-05-18T19:38:32.354Z,100898.63
2023-05-18T19:40:59.136Z,100903.41
2023-05-18T19:43:25.736Z,100903.72
2023-05-18T19:45:52.437Z,100909.81
2023-05-18T19:48:19.163Z,100913.53
2023-05-18T19:50:46.105Z,100915.22
2023-05-18T19:53:12.832Z,100915.22
2023-05-18T19:55:39.465Z,100915.97
2023-05-18T19:58:06.557Z,100924.06
2023-05-18T20:00:33.888Z,100925.66
2023-05-18T20:03:03.667Z,100930.75
2023-05-18T20:05:30.458Z,100926.06
2023-05-18T20:07:58.233Z,100934.31
2023-05-18T20:10:25.363Z,100930.06
2023-05-18T20:12:51.955Z,100930.88
2023-05-18T20:15:19.130Z,100938.16
2023-05-18T20:17:46.115Z,100934.47
2023-05-18T20:20:12.842Z,100936.28
2023-05-18T20:22:39.728Z,100939.16
2023-05-18T20:25:06.998Z,100949.25
2023-05-18T20:27:33.663Z,100937.44
2023-05-18T20:30:00.678Z,100942.00
2023-05-18T20:32:27.462Z,100941.88
2023-05-18T20:34:54.097Z,100941.69
2023-05-18T20:37:20.838Z,100943.69
2023-05-18T20:39:50.816Z,100948.41
2023-05-18T20:42:22.107Z,100940.44
2023-05-18T20:44:51.387Z,100948.53
2023-05-18T20:47:20.470Z,100951.94
2023-05-18T20:49:47.962Z,100946.41
2023-05-18T20:52:17.219Z,100944.97
2023-05-18T20:54:43.838Z,100946.97
2023-05-18T20:57:10.666Z,100949.53
2023-05-18T20:59:37.261Z,100942.44
2023-05-18T21:02:04.772Z,100946.84
2023-05-18T21:04:31.591Z,100946.66
2023-05-18T21:06:58.348Z,100945.69
2023-05-18T21:09:26.712Z,100944.69
2023-05-18T21:11:53.332Z,100948.25
2023-05-18T21:14:19.944Z,100953.66
2023-05-18T21:16:47.420Z,100954.50
2023-05-18T21:19:14.122Z,100959.66
2023-05-18T21:21:40.789Z,100960.50
2023-05-18T21:24:07.440Z,100957.66
2023-05-18T21:26:34.126Z,100962.19
2023-05-18T21:29:01.535Z,100952.94
2023-05-18T21:31:28.506Z,100958.34
2023-05-18T21:33:55.699Z,100959.94
2023-05-18T21:36:34.985Z,100960.78
2023-05-18T21:39:04.020Z,100962.63
2023-05-18T21:41:30.972Z,100960.06
2023-05-18T21:43:58.074Z,100961.78
2023-05-18T21:46:25.075Z,100964.50
2023-05-18T21:48:51.931Z,100968.91
2023-05-18T21:51:18.615Z,100968.03
2023-05-18T21:53:45.422Z,100969.03
2023-05-18T21:56:12.133Z,100969.03
2023-05-18T21:58:38.752Z,100969.03
2023-05-18T22:01:05.551Z,100973.88
2023-05-18T22:03:32.216Z,100978.16
2023-05-18T22:05:58.842Z,100974.44
2023-05-18T22:08:25.625Z,100975.31
2023-05-18T22:10:53.304Z,100970.03
2023-05-18T22:13:19.952Z,100970.88
2023-05-18T22:15:46.598Z,100971.88
2023-05-18T22:18:13.237Z,100972.75
2023-05-18T22:20:39.856Z,100973.31
2023-05-18T22:23:06.658Z,100975.44
2023-05-18T22:25:33.302Z,100972.88
2023-05-18T22:27:59.960Z,100981.28
2023-05-18T22:30:28.453Z,100976.00
2023-05-18T22:32:55.185Z,100977.00
2023-05-18T22:35:21.893Z,100971.72
2023-05-18T22:37:48.569Z,100977.13
2023-05-18T22:40:15.194Z,100971.16
2023-05-18T22:42:41.981Z,100977.69
2023-05-18T22:45:09.814Z,100973.13
2023-05-18T22:47:37.456Z,100967.72
2023-05-18T22:50:04.673Z,100975.00
2023-05-18T22:52:32.473Z,100968.00
2023-05-18T22:54:59.229Z,100962.75
2023-05-18T22:57:25.815Z,100961.88
2023-05-18T22:59:52.433Z,100959.34
2023-05-18T23:02:19.163Z,100955.75
2023-05-18T23:04:46.036Z,100950.66
2023-05-18T23:07:12.609Z,100953.03
2023-05-18T23:09:39.902Z,100961.56
2023-05-18T23:12:07.511Z,100963.69
2023-05-18T23:14:34.627Z,100967.53
2023-05-18T23:17:01.264Z,100965.09
2023-05-18T23:19:28.251Z,100963.06
2023-05-18T23:21:55.920Z,100961.47
2023-05-18T23:24:22.551Z,100965.31
2023-05-18T23:26:49.259Z,100968.16
2023-05-18T23:29:15.979Z,100975.41
2023-05-18T23:31:42.610Z,100972.84
2023-05-18T23:34:09.584Z,100977.41
2023-05-18T23:36:38.883Z,100977.66
2023-05-18T23:39:06.088Z,100980.34
2023-05-18T23:41:34.371Z,100984.75
2023-05-18T23:44:01.626Z,100979.22
2023-05-18T23:46:28.535Z,100985.75
2023-05-18T23:48:57.810Z,100985.06
2023-05-18T23:51:25.820Z,100977.94
2023-05-18T23:53:52.714Z,100975.09
2023-05-18T23:56:19.787Z,100975.25
2023-05-18T23:58:47.115Z,100971.66
